Time;durP1;ratioP1;P1;durP2;ratioP2;P2;SDS_P1;SDS_P2;PMS_P1;PMS_P2;Temp;Humidity;BMP_temperature;BMP_pressure;BME280_temperature;BME280_humidity;BME280_pressure;Samples;Min_cycle;Max_cycle;Signal;HPM_P1;HPM_P2
2023/07/29 00:01:54;;;;;;;3.23;2.00;;;20.00;99.90;;;;;;4997346;28;20482;-81
2023/07/29 00:04:21;;;;;;;2.67;2.27;;;19.90;99.90;;;;;;4996788;28;20513;-81
2023/07/29 00:06:48;;;;;;;3.70;2.40;;;19.90;99.90;;;;;;4991847;28;20463;-81
2023/07/29 00:09:15;;;;;;;3.37;2.67;;;19.90;99.90;;;;;;4983652;28;20505;-81
2023/07/29 00:11:41;;;;;;;3.90;2.60;;;19.80;99.90;;;;;;4991478;28;20491;-79
2023/07/29 00:14:08;;;;;;;3.97;2.90;;;19.80;99.90;;;;;;5002771;28;20549;-79
2023/07/29 00:16:36;;;;;;;4.20;2.10;;;19.80;99.90;;;;;;5002461;28;20458;-80
2023/07/29 00:19:04;;;;;;;2.20;1.90;;;19.80;99.90;;;;;;5003095;28;20526;-78
2023/07/29 00:21:30;;;;;;;4.33;2.77;;;19.80;99.90;;;;;;5003787;28;20498;-79
2023/07/29 00:23:58;;;;;;;2.63;2.43;;;19.70;99.90;;;;;;5001347;28;20537;-80
2023/07/29 00:26:28;;;;;;;3.23;2.23;;;19.70;99.90;;;;;;4995285;28;20494;-80
2023/07/29 00:28:55;;;;;;;6.33;2.43;;;19.70;99.90;;;;;;4995776;28;20442;-80
2023/07/29 00:31:22;;;;;;;5.37;2.53;;;19.70;99.90;;;;;;4996073;28;20574;-80
2023/07/29 00:33:50;;;;;;;2.90;2.40;;;19.70;99.90;;;;;;4995707;28;20494;-80
2023/07/29 00:36:17;;;;;;;3.70;2.33;;;19.70;99.90;;;;;;4995278;28;20459;-80
2023/07/29 00:38:44;;;;;;;3.33;3.03;;;19.70;99.90;;;;;;4995328;28;20462;-81
2023/07/29 00:41:13;;;;;;;3.80;2.30;;;19.70;99.90;;;;;;4995286;28;20561;-81
2023/07/29 00:43:40;;;;;;;3.00;2.70;;;19.70;99.90;;;;;;4995066;28;20469;-80
2023/07/29 00:46:08;;;;;;;3.33;2.30;;;19.70;99.90;;;;;;4992028;28;20894;-81
2023/07/29 00:48:34;;;;;;;3.80;3.00;;;19.80;99.90;;;;;;4994609;28;20461;-81
2023/07/29 00:51:03;;;;;;;3.17;2.87;;;19.80;99.90;;;;;;4994670;28;20565;-81
2023/07/29 00:53:30;;;;;;;3.00;2.63;;;19.80;99.90;;;;;;4995386;28;20466;-81
2023/07/29 00:55:57;;;;;;;2.67;2.47;;;19.80;99.90;;;;;;4993979;28;20454;-81
2023/07/29 00:58:23;;;;;;;3.13;2.80;;;19.80;99.90;;;;;;4994240;28;20453;-81
2023/07/29 01:00:51;;;;;;;2.60;2.40;;;19.80;99.90;;;;;;4994565;28;20493;-81
2023/07/29 01:03:18;;;;;;;3.10;2.53;;;19.80;99.90;;;;;;4995215;28;20462;-81
2023/07/29 01:05:57;;;;;;;2.93;2.70;;;19.80;99.90;;;;;;4993752;28;20486;-81
2023/07/29 01:08:34;;;;;;;2.90;2.70;;;19.80;99.90;;;;;;4995917;28;20454;-81
2023/07/29 01:11:14;;;;;;;3.80;3.10;;;19.80;99.90;;;;;;4995607;28;20959;-81
2023/07/29 01:13:48;;;;;;;6.00;2.77;;;19.80;99.90;;;;;;4995631;28;20833;-81
2023/07/29 01:16:21;;;;;;;3.00;2.70;;;19.80;99.90;;;;;;4995105;28;20443;-80
2023/07/29 01:18:50;;;;;;;3.40;3.00;;;19.80;99.90;;;;;;4996547;28;20490;-81
2023/07/29 01:21:18;;;;;;;3.33;2.83;;;19.80;99.90;;;;;;5001028;28;20871;-80
2023/07/29 01:23:46;;;;;;;3.97;3.57;;;19.80;99.90;;;;;;5002637;28;20465;-81
2023/07/29 01:26:13;;;;;;;3.97;3.20;;;19.80;99.90;;;;;;4999774;28;20490;-81
2023/07/29 01:28:40;;;;;;;3.33;2.90;;;19.70;99.90;;;;;;5000655;28;20582;-80
2023/07/29 01:31:13;;;;;;;3.83;2.97;;;19.70;99.90;;;;;;4999481;28;20496;-81
2023/07/29 01:33:45;;;;;;;4.87;3.37;;;19.70;99.90;;;;;;4999878;28;20456;-81
2023/07/29 01:36:16;;;;;;;4.00;3.60;;;19.70;99.90;;;;;;4999140;28;20536;-81
2023/07/29 01:38:44;;;;;;;3.00;2.80;;;19.70;99.90;;;;;;4999577;28;20569;-81
2023/07/29 01:41:13;;;;;;;4.73;3.73;;;19.70;99.90;;;;;;4998676;28;20482;-81
2023/07/29 01:43:43;;;;;;;3.83;3.40;;;19.60;99.90;;;;;;4998591;28;20455;-80
2023/07/29 01:46:11;;;;;;;4.63;3.43;;;19.60;99.90;;;;;;4996000;28;20501;-81
2023/07/29 01:48:38;;;;;;;4.30;3.80;;;19.60;99.90;;;;;;4989706;28;20463;-81
2023/07/29 01:51:05;;;;;;;3.73;3.43;;;19.60;99.90;;;;;;4998176;28;20500;-81
2023/07/29 01:53:32;;;;;;;3.33;3.03;;;19.70;99.90;;;;;;4998394;28;20457;-81
2023/07/29 01:55:59;;;;;;;3.57;3.27;;;19.60;99.90;;;;;;4997636;28;20455;-81
2023/07/29 01:58:27;;;;;;;4.03;3.73;;;19.60;99.90;;;;;;4997926;28;20977;-80
2023/07/29 02:00:54;;;;;;;4.50;3.93;;;19.60;99.90;;;;;;4997341;28;20478;-81
2023/07/29 02:03:21;;;;;;;4.70;3.53;;;19.60;99.90;;;;;;4997206;28;20838;-82
2023/07/29 02:05:47;;;;;;;4.30;4.00;;;19.70;99.90;;;;;;4996247;28;20501;-82
2023/07/29 02:08:14;;;;;;;3.90;3.60;;;19.70;99.90;;;;;;4996881;28;20462;-81
2023/07/29 02:10:44;;;;;;;7.17;4.00;;;19.70;99.90;;;;;;4996713;28;20485;-82
2023/07/29 02:13:11;;;;;;;4.03;3.50;;;19.70;99.90;;;;;;4996967;28;20874;-82
2023/07/29 02:15:39;;;;;;;3.97;3.67;;;19.70;99.90;;;;;;4996910;28;21151;-82
2023/07/29 02:18:07;;;;;;;5.57;3.60;;;19.70;99.90;;;;;;4997211;28;20454;-82
2023/07/29 02:20:33;;;;;;;3.67;3.37;;;19.70;99.90;;;;;;4996416;28;20643;-81
2023/07/29 02:23:00;;;;;;;3.80;3.50;;;19.80;99.90;;;;;;4997195;28;20994;-82
2023/07/29 02:25:27;;;;;;;3.60;3.30;;;19.80;99.90;;;;;;4995612;28;20548;-81
2023/07/29 02:27:54;;;;;;;4.10;3.33;;;19.80;99.90;;;;;;4996888;28;20457;-82
2023/07/29 02:30:21;;;;;;;3.50;3.20;;;19.80;99.90;;;;;;4996788;28;20465;-81
2023/07/29 02:32:49;;;;;;;4.20;3.43;;;19.80;99.90;;;;;;4995851;28;20848;-82
2023/07/29 02:35:16;;;;;;;3.70;3.40;;;19.80;99.90;;;;;;4996284;28;20493;-79
2023/07/29 02:37:43;;;;;;;3.63;3.33;;;19.80;99.90;;;;;;4996787;28;20455;-81
2023/07/29 02:40:11;;;;;;;4.90;3.50;;;19.80;99.90;;;;;;4997569;28;20538;-81
2023/07/29 02:42:38;;;;;;;4.03;3.70;;;19.80;99.90;;;;;;4996702;28;20485;-81
2023/07/29 02:45:09;;;;;;;4.17;3.80;;;19.80;99.90;;;;;;4995030;28;20490;-80
2023/07/29 02:47:36;;;;;;;4.03;3.70;;;19.80;99.90;;;;;;4997674;28;20542;-80
2023/07/29 02:50:05;;;;;;;3.37;3.07;;;19.80;99.90;;;;;;4998338;28;20451;-81
2023/07/29 02:52:32;;;;;;;3.70;3.40;;;19.80;99.90;;;;;;4996043;28;20486;-80
2023/07/29 02:54:59;;;;;;;4.30;3.90;;;19.90;99.90;;;;;;4996275;28;20469;-81
2023/07/29 02:57:25;;;;;;;5.50;4.47;;;19.80;99.90;;;;;;4995595;28;20442;-81
2023/07/29 02:59:52;;;;;;;3.53;3.23;;;19.80;99.90;;;;;;4996219;28;20454;-80
2023/07/29 03:02:19;;;;;;;4.90;3.20;;;19.80;99.90;;;;;;4999956;28;20540;-81
2023/07/29 03:04:46;;;;;;;3.33;3.00;;;19.80;99.90;;;;;;4998571;28;20465;-80
2023/07/29 03:07:14;;;;;;;3.37;2.90;;;19.80;99.90;;;;;;4998055;28;20868;-81
2023/07/29 03:09:41;;;;;;;4.37;3.67;;;19.80;99.90;;;;;;4998137;28;20463;-81
2023/07/29 03:12:08;;;;;;;3.80;3.50;;;19.80;99.90;;;;;;4997279;28;20482;-81
2023/07/29 03:14:35;;;;;;;3.47;2.93;;;19.80;99.90;;;;;;4997356;28;20447;-81
2023/07/29 03:17:04;;;;;;;3.37;3.07;;;19.80;99.90;;;;;;4995872;28;20487;-81
2023/07/29 03:19:31;;;;;;;3.70;3.33;;;19.80;99.90;;;;;;4996382;28;20458;-81
2023/07/29 03:21:57;;;;;;;4.00;3.33;;;19.80;99.90;;;;;;4997021;28;20529;-81
2023/07/29 03:24:26;;;;;;;2.90;2.67;;;19.80;99.90;;;;;;4995822;28;20462;-81
2023/07/29 03:26:52;;;;;;;6.53;3.10;;;19.80;99.90;;;;;;4994812;28;20497;-80
2023/07/29 03:29:19;;;;;;;3.37;2.90;;;19.80;99.90;;;;;;4995700;28;21004;-80
2023/07/29 03:31:46;;;;;;;3.37;3.07;;;19.80;99.90;;;;;;4995723;28;20484;-81
2023/07/29 03:34:13;;;;;;;3.70;2.83;;;19.80;99.90;;;;;;4995979;28;20468;-81
2023/07/29 03:36:40;;;;;;;3.53;2.43;;;19.90;99.90;;;;;;4994129;28;20542;-80
2023/07/29 03:39:07;;;;;;;2.80;2.53;;;19.90;99.90;;;;;;4995865;28;20462;-80
2023/07/29 03:41:35;;;;;;;4.70;2.50;;;19.90;99.90;;;;;;4994415;28;20544;-81
2023/07/29 03:44:02;;;;;;;3.63;3.20;;;19.90;99.90;;;;;;4992888;28;20453;-80
2023/07/29 03:46:29;;;;;;;2.33;2.10;;;19.90;99.90;;;;;;4993576;28;20478;-80
2023/07/29 03:48:56;;;;;;;2.33;2.03;;;19.90;99.90;;;;;;4995034;28;20465;-80
2023/07/29 03:51:24;;;;;;;2.40;2.20;;;19.90;99.90;;;;;;4994690;28;20949;-81
2023/07/29 03:53:51;;;;;;;3.23;2.93;;;19.90;99.90;;;;;;4994822;28;20459;-81
2023/07/29 03:56:17;;;;;;;2.87;2.37;;;19.90;99.90;;;;;;4994630;28;20549;-80
2023/07/29 03:58:47;;;;;;;2.93;2.20;;;19.90;99.90;;;;;;4994422;28;20466;-81
2023/07/29 04:01:14;;;;;;;4.47;2.90;;;19.90;99.90;;;;;;4994038;28;20482;-81
2023/07/29 04:03:41;;;;;;;3.63;3.00;;;19.90;99.90;;;;;;4994340;28;20951;-81
2023/07/29 04:06:08;;;;;;;3.73;3.30;;;19.80;99.90;;;;;;4993252;28;20486;-81
2023/07/29 04:08:35;;;;;;;3.40;3.13;;;19.90;99.90;;;;;;4994557;28;20983;-80
2023/07/29 04:11:02;;;;;;;2.93;2.73;;;19.90;99.90;;;;;;4993801;28;20574;-80
2023/07/29 04:13:29;;;;;;;3.30;3.00;;;19.90;99.90;;;;;;4994479;28;20522;-80
2023/07/29 04:15:57;;;;;;;4.50;2.90;;;19.90;99.90;;;;;;4993603;28;20457;-80
2023/07/29 04:18:24;;;;;;;4.07;3.50;;;19.90;99.90;;;;;;4994263;28;20498;-81
2023/07/29 04:20:50;;;;;;;4.83;2.90;;;19.90;99.90;;;;;;4993741;28;20481;-81
2023/07/29 04:23:17;;;;;;;3.20;2.90;;;19.90;99.90;;;;;;4994201;28;20446;-81
2023/07/29 04:25:44;;;;;;;5.83;3.20;;;19.90;99.90;;;;;;4993047;28;20483;-81
2023/07/29 04:28:11;;;;;;;3.10;2.80;;;19.90;99.90;;;;;;4994182;28;20545;-80
2023/07/29 04:30:37;;;;;;;8.20;3.37;;;19.90;99.90;;;;;;4993806;28;20990;-81
2023/07/29 04:33:06;;;;;;;4.10;3.27;;;19.90;99.90;;;;;;4994177;28;20546;-80
2023/07/29 04:35:34;;;;;;;4.37;3.20;;;19.90;99.90;;;;;;4992833;28;20459;-80
2023/07/29 04:38:01;;;;;;;5.60;2.93;;;20.00;99.90;;;;;;4993930;28;20465;-81
2023/07/29 04:40:28;;;;;;;4.70;3.67;;;20.00;99.90;;;;;;4996971;28;20463;-80
2023/07/29 04:42:55;;;;;;;4.67;3.27;;;20.00;99.90;;;;;;4998587;28;20462;-81
2023/07/29 04:45:22;;;;;;;5.03;4.03;;;20.00;99.90;;;;;;4996100;28;20459;-82
2023/07/29 04:47:50;;;;;;;4.70;4.30;;;20.00;99.90;;;;;;4996940;28;20992;-82
2023/07/29 04:50:18;;;;;;;6.33;4.60;;;20.00;99.90;;;;;;4997045;28;20458;-81
2023/07/29 04:52:45;;;;;;;5.20;4.50;;;19.80;99.90;;;;;;5054337;22;20590;-79
2023/07/29 04:55:12;;;;;;;7.20;5.13;;;19.80;99.90;;;;;;5054557;28;20456;-77
2023/07/29 04:57:39;;;;;;;4.73;4.33;;;19.90;99.90;;;;;;5055607;28;20491;-79
2023/07/29 05:00:08;;;;;;;5.03;4.60;;;19.90;99.90;;;;;;5056578;28;20459;-80
2023/07/29 05:02:34;;;;;;;5.23;4.73;;;19.80;99.90;;;;;;5051388;28;20991;-78
2023/07/29 05:05:02;;;;;;;5.40;4.93;;;19.90;99.90;;;;;;5056748;28;20535;-80
2023/07/29 05:07:30;;;;;;;4.90;4.40;;;19.80;99.90;;;;;;5053240;28;20488;-79
2023/07/29 05:09:56;;;;;;;4.40;4.10;;;19.80;99.90;;;;;;5054202;28;20455;-78
2023/07/29 05:12:23;;;;;;;4.70;4.30;;;19.80;99.90;;;;;;5055647;28;20477;-79
2023/07/29 05:14:50;;;;;;;4.47;4.07;;;19.80;99.90;;;;;;5056683;28;20460;-81
2023/07/29 05:17:17;;;;;;;5.47;3.70;;;19.80;99.90;;;;;;5053054;28;20454;-82
2023/07/29 05:19:44;;;;;;;4.73;4.03;;;19.80;99.90;;;;;;5056160;28;20451;-79
2023/07/29 05:22:11;;;;;;;4.67;4.27;;;19.80;99.90;;;;;;5056093;28;20471;-80
2023/07/29 05:24:42;;;;;;;9.47;4.73;;;19.80;99.90;;;;;;5056277;28;20451;-81
2023/07/29 05:27:09;;;;;;;5.30;4.23;;;19.80;99.90;;;;;;5053519;28;20487;-81
2023/07/29 05:29:37;;;;;;;5.10;4.60;;;19.80;99.90;;;;;;5056243;28;20834;-80
2023/07/29 05:32:04;;;;;;;5.87;5.37;;;19.90;99.90;;;;;;5055897;28;20889;-80
2023/07/29 05:34:31;;;;;;;6.20;5.40;;;19.90;99.90;;;;;;5055094;28;20455;-80
2023/07/29 05:36:57;;;;;;;6.93;5.33;;;19.90;99.90;;;;;;5054695;28;20452;-80
2023/07/29 05:39:25;;;;;;;5.70;5.20;;;20.00;99.90;;;;;;5056301;28;20456;-81
2023/07/29 05:41:53;;;;;;;7.50;6.20;;;20.00;99.90;;;;;;5055560;28;20475;-81
2023/07/29 05:44:20;;;;;;;7.33;6.63;;;20.00;99.90;;;;;;5056001;28;20539;-82
2023/07/29 05:46:47;;;;;;;8.80;6.60;;;20.00;99.90;;;;;;5055110;28;20475;-81
2023/07/29 05:49:18;;;;;;;7.37;6.67;;;20.00;99.90;;;;;;5055131;28;20458;-79
2023/07/29 05:51:45;;;;;;;7.37;6.77;;;20.00;99.90;;;;;;5053978;28;20480;-81
2023/07/29 05:54:12;;;;;;;8.23;7.43;;;20.00;99.90;;;;;;5050057;28;20493;-80
2023/07/29 05:56:38;;;;;;;9.60;8.80;;;20.00;99.90;;;;;;5054067;28;20527;-81
2023/07/29 05:59:07;;;;;;;10.33;9.17;;;20.00;99.90;;;;;;5054926;28;20463;-81
2023/07/29 06:01:35;;;;;;;9.97;9.17;;;20.00;99.90;;;;;;5055953;28;20471;-80
2023/07/29 06:04:02;;;;;;;9.77;8.87;;;20.00;99.90;;;;;;5055939;28;20534;-82
2023/07/29 06:06:28;;;;;;;10.67;9.67;;;20.00;99.90;;;;;;5051325;28;20943;-79
2023/07/29 06:08:55;;;;;;;11.10;10.00;;;19.90;99.90;;;;;;5056559;28;20699;-83
2023/07/29 06:11:22;;;;;;;10.17;9.27;;;20.00;99.90;;;;;;5054466;28;20558;-81
2023/07/29 06:13:49;;;;;;;10.70;9.70;;;19.90;99.90;;;;;;5056518;28;20452;-81
2023/07/29 06:16:17;;;;;;;10.53;9.40;;;19.90;99.90;;;;;;5055181;28;20909;-81
2023/07/29 06:18:44;;;;;;;9.87;8.87;;;19.90;99.90;;;;;;5056796;28;20456;-83
2023/07/29 06:21:16;;;;;;;8.47;7.77;;;19.90;99.90;;;;;;5055831;28;20470;-82
2023/07/29 06:23:43;;;;;;;7.43;6.73;;;19.80;99.90;;;;;;5053434;28;20455;-81
2023/07/29 06:26:10;;;;;;;7.90;7.03;;;19.80;99.90;;;;;;5054949;28;20539;-82
2023/07/29 06:28:36;;;;;;;7.47;6.77;;;19.70;99.90;;;;;;5055076;28;20536;-82
2023/07/29 06:31:03;;;;;;;4.93;4.43;;;19.80;99.90;;;;;;5055198;28;20559;-80
2023/07/29 06:33:31;;;;;;;5.30;4.40;;;19.80;99.90;;;;;;5054319;28;20535;-83
2023/07/29 06:35:58;;;;;;;5.00;4.20;;;19.80;99.90;;;;;;5053380;28;20448;-81
2023/07/29 06:38:25;;;;;;;3.87;3.20;;;19.70;99.90;;;;;;5054908;28;20893;-82
2023/07/29 06:40:52;;;;;;;3.73;2.97;;;19.70;99.90;;;;;;5054398;28;20516;-80
2023/07/29 06:43:19;;;;;;;4.37;2.40;;;19.70;99.90;;;;;;5060095;28;20555;-80
2023/07/29 06:45:46;;;;;;;2.97;2.67;;;19.70;99.90;;;;;;5060553;28;20440;-81
2023/07/29 06:48:12;;;;;;;3.63;2.93;;;19.70;99.90;;;;;;5053270;28;20489;-82
2023/07/29 06:50:41;;;;;;;4.33;2.63;;;19.70;99.90;;;;;;5046248;28;20458;-80
2023/07/29 06:53:10;;;;;;;4.30;3.07;;;19.60;99.90;;;;;;5054753;28;20475;-83
2023/07/29 06:55:37;;;;;;;5.37;2.50;;;19.70;99.90;;;;;;5055741;28;20482;-83
2023/07/29 06:58:03;;;;;;;4.03;2.53;;;19.70;99.90;;;;;;5053650;28;20444;-81
2023/07/29 07:00:30;;;;;;;4.00;3.00;;;19.70;99.90;;;;;;5051547;28;20471;-80
2023/07/29 07:02:57;;;;;;;5.20;2.10;;;19.70;99.90;;;;;;5052424;28;20513;-83
2023/07/29 07:05:24;;;;;;;2.27;1.83;;;19.70;99.90;;;;;;5059818;28;20454;-82
2023/07/29 07:07:52;;;;;;;2.30;2.00;;;19.70;99.90;;;;;;5068652;28;20487;-80
2023/07/29 07:10:19;;;;;;;2.20;1.63;;;19.60;99.90;;;;;;5065179;28;20470;-82
2023/07/29 07:12:46;;;;;;;2.30;1.90;;;19.60;99.90;;;;;;5058715;28;20475;-80
2023/07/29 07:15:13;;;;;;;3.20;2.50;;;19.60;99.90;;;;;;5061042;28;20462;-81
2023/07/29 07:17:40;;;;;;;3.53;2.40;;;19.50;99.90;;;;;;5070165;28;20486;-80
2023/07/29 07:20:08;;;;;;;3.33;1.87;;;19.50;99.90;;;;;;5056116;28;20462;-82
2023/07/29 07:22:35;;;;;;;2.67;1.90;;;19.40;99.90;;;;;;5055211;28;20475;-82
2023/07/29 07:25:03;;;;;;;4.20;2.50;;;19.40;99.90;;;;;;5054765;28;20456;-81
2023/07/29 07:27:30;;;;;;;2.90;1.80;;;19.40;99.90;;;;;;5055025;28;21013;-83
2023/07/29 07:29:57;;;;;;;3.23;1.97;;;19.30;99.90;;;;;;5055049;28;20476;-81
2023/07/29 07:32:24;;;;;;;3.53;2.40;;;19.40;99.90;;;;;;5055094;28;20480;-83
2023/07/29 07:34:50;;;;;;;3.00;1.97;;;19.40;99.90;;;;;;5054593;28;20462;-85
2023/07/29 07:37:17;;;;;;;2.53;1.93;;;19.50;99.90;;;;;;5054673;28;20466;-83
2023/07/29 07:39:44;;;;;;;2.47;1.53;;;19.60;99.90;;;;;;5054780;28;20448;-82
2023/07/29 07:42:12;;;;;;;2.27;1.73;;;19.70;99.90;;;;;;5054254;28;21011;-82
2023/07/29 07:44:39;;;;;;;2.67;1.87;;;19.70;99.90;;;;;;5042689;28;20483;-83
2023/07/29 07:47:08;;;;;;;2.67;1.93;;;19.80;99.90;;;;;;5052030;28;20667;-83
2023/07/29 07:49:34;;;;;;;2.90;1.73;;;19.70;99.90;;;;;;5055260;28;20466;-84
2023/07/29 07:52:01;;;;;;;3.87;1.77;;;19.70;99.90;;;;;;5055283;28;21027;-81
2023/07/29 07:54:28;;;;;;;2.67;1.73;;;20.00;99.90;;;;;;5056693;28;20452;-82
2023/07/29 07:56:55;;;;;;;2.30;1.87;;;20.00;99.90;;;;;;5055701;28;20452;-81
2023/07/29 07:59:23;;;;;;;2.50;1.77;;;20.20;99.90;;;;;;5056239;28;21257;-83
2023/07/29 08:01:50;;;;;;;2.33;1.80;;;20.30;99.90;;;;;;5055879;28;21055;-83
2023/07/29 08:04:16;;;;;;;6.03;2.30;;;20.40;99.90;;;;;;5056135;28;20538;-82
2023/07/29 08:06:43;;;;;;;3.67;2.23;;;20.50;99.90;;;;;;5054977;28;20456;-81
2023/07/29 08:09:10;;;;;;;3.10;1.60;;;20.50;99.90;;;;;;5055770;28;20829;-84
2023/07/29 08:11:37;;;;;;;2.43;1.70;;;20.60;99.90;;;;;;5053527;28;20543;-82
2023/07/29 08:14:04;;;;;;;2.40;1.47;;;20.70;99.90;;;;;;5055549;28;20452;-82
2023/07/29 08:16:32;;;;;;;2.63;1.80;;;20.60;99.90;;;;;;5056077;28;20971;-84
2023/07/29 08:18:59;;;;;;;2.00;1.53;;;20.60;99.90;;;;;;5055251;28;20570;-82
2023/07/29 08:21:27;;;;;;;2.30;1.67;;;20.60;99.90;;;;;;5055309;28;20983;-80
2023/07/29 08:23:54;;;;;;;2.70;1.60;;;20.70;99.90;;;;;;5054717;28;20458;-81
2023/07/29 08:26:21;;;;;;;2.73;1.70;;;20.80;99.90;;;;;;5054400;28;20462;-81
2023/07/29 08:28:49;;;;;;;2.67;1.60;;;20.70;99.90;;;;;;5056531;28;20483;-82
2023/07/29 08:31:16;;;;;;;2.20;1.47;;;20.70;99.90;;;;;;5060678;28;20463;-81
2023/07/29 08:33:44;;;;;;;2.37;1.30;;;20.70;99.90;;;;;;5061648;28;20451;-82
2023/07/29 08:36:11;;;;;;;3.10;2.03;;;20.70;99.90;;;;;;5060014;28;20451;-81
2023/07/29 08:38:38;;;;;;;1.90;1.50;;;20.60;99.90;;;;;;5060275;28;20447;-81
2023/07/29 08:41:14;;;;;;;6.10;1.70;;;20.70;99.90;;;;;;5061072;28;20457;-79
2023/07/29 08:43:49;;;;;;;2.60;1.60;;;20.80;99.90;;;;;;5059791;28;20628;-81
2023/07/29 08:46:17;;;;;;;2.63;2.00;;;20.60;99.90;;;;;;5059344;28;20447;-80
2023/07/29 08:48:45;;;;;;;2.60;2.03;;;20.70;90.70;;;;;;5060544;28;20525;-81
2023/07/29 08:51:12;;;;;;;3.10;2.27;;;20.90;99.90;;;;;;5060199;28;20452;-81
2023/07/29 08:53:40;;;;;;;3.10;2.07;;;20.90;99.90;;;;;;5048881;28;20454;-79
2023/07/29 08:56:08;;;;;;;3.30;1.93;;;21.00;99.90;;;;;;5059726;28;20444;-81
2023/07/29 08:58:36;;;;;;;2.17;1.70;;;21.20;1.00;;;;;;5059100;28;20443;-83
2023/07/29 09:01:09;;;;;;;2.27;1.83;;;21.50;99.90;;;;;;5059165;28;20451;-82
2023/07/29 09:03:38;;;;;;;3.37;2.50;;;21.70;90.50;;;;;;5058309;28;21081;-81
2023/07/29 09:06:07;;;;;;;5.47;3.93;;;21.80;61.80;;;;;;5053438;28;20451;-83
2023/07/29 09:08:34;;;;;;;2.97;2.67;;;21.90;1.00;;;;;;5059199;28;20861;-80
2023/07/29 09:11:02;;;;;;;2.97;2.53;;;22.10;72.70;;;;;;5059677;28;20448;-82
2023/07/29 09:13:29;;;;;;;4.10;2.30;;;22.20;1.00;;;;;;5056795;28;20457;-80
2023/07/29 09:15:57;;;;;;;3.60;2.63;;;22.00;1.00;;;;;;5058445;28;20451;-83
2023/07/29 09:18:28;;;;;;;2.60;2.40;;;21.90;1.00;;;;;;5046842;28;20455;-80
2023/07/29 09:20:55;;;;;;;2.33;2.13;;;22.00;1.00;;;;;;5059417;28;20977;-82
2023/07/29 09:23:23;;;;;;;2.87;2.60;;;22.30;11.40;;;;;;5057796;28;20471;-81
2023/07/29 09:25:50;;;;;;;3.27;2.97;;;22.50;90.30;;;;;;5055164;28;20463;-82
2023/07/29 09:28:17;;;;;;;3.60;2.40;;;22.80;74.60;;;;;;5067752;28;20866;-81
2023/07/29 09:30:48;;;;;;;2.77;2.30;;;22.90;1.00;;;;;;5055395;28;20494;-82
2023/07/29 09:33:14;;;;;;;2.60;2.00;;;22.80;1.00;;;;;;5052488;28;20546;-83
2023/07/29 09:35:41;;;;;;;2.90;1.73;;;22.70;1.00;;;;;;5058434;28;20935;-81
2023/07/29 09:38:08;;;;;;;3.27;2.07;;;22.60;1.00;;;;;;5058391;28;20454;-82
2023/07/29 09:40:38;;;;;;;5.50;1.73;;;22.60;1.00;;;;;;5057671;28;20517;-81
2023/07/29 09:43:05;;;;;;;3.50;1.47;;;22.80;8.00;;;;;;5045895;28;20987;-80
2023/07/29 09:45:34;;;;;;;2.63;1.60;;;22.80;1.00;;;;;;5055186;28;20455;-83
2023/07/29 09:48:02;;;;;;;2.30;1.70;;;23.00;1.00;;;;;;5055636;28;20574;-82
2023/07/29 09:50:30;;;;;;;1.90;1.40;;;22.90;1.00;;;;;;5056299;28;20443;-81
2023/07/29 09:52:58;;;;;;;2.17;1.40;;;22.90;1.00;;;;;;5054806;28;20586;-81
2023/07/29 09:55:26;;;;;;;1.90;1.23;;;22.90;99.90;;;;;;5057773;28;21409;-81
2023/07/29 09:58:00;;;;;;;2.33;1.53;;;23.00;1.00;;;;;;5071627;28;20446;-80
2023/07/29 10:00:27;;;;;;;3.83;1.60;;;22.80;99.90;;;;;;5047692;28;20462;-80
2023/07/29 10:02:54;;;;;;;1.90;1.30;;;22.70;1.00;;;;;;5057176;28;20472;-82
2023/07/29 10:05:23;;;;;;;2.20;1.67;;;22.50;1.00;;;;;;5057761;28;20832;-80
2023/07/29 10:07:51;;;;;;;2.70;2.00;;;22.30;1.00;;;;;;5057253;28;20487;-82
2023/07/29 10:10:18;;;;;;;2.10;1.57;;;22.20;1.00;;;;;;5067331;28;20455;-84
2023/07/29 10:12:45;;;;;;;2.43;1.60;;;22.20;1.00;;;;;;5058978;28;21025;-82
2023/07/29 10:15:14;;;;;;;1.97;1.50;;;22.10;1.00;;;;;;5057905;28;20456;-79
2023/07/29 10:17:40;;;;;;;2.43;1.80;;;22.00;1.00;;;;;;5052140;28;20455;-80
2023/07/29 10:20:09;;;;;;;3.27;1.80;;;22.20;1.00;;;;;;5057941;28;20467;-81
2023/07/29 10:22:39;;;;;;;2.20;1.67;;;22.40;97.00;;;;;;5057342;28;20831;-81
2023/07/29 10:25:09;;;;;;;2.60;1.67;;;22.40;1.00;;;;;;5055257;28;21061;-79
2023/07/29 10:27:43;;;;;;;2.67;1.70;;;22.50;1.00;;;;;;5057099;28;20904;-81
2023/07/29 10:30:14;;;;;;;2.40;1.90;;;22.70;1.00;;;;;;5056005;28;20459;-81
2023/07/29 10:32:43;;;;;;;2.20;1.90;;;23.00;1.00;;;;;;5051689;28;20979;-83
2023/07/29 10:35:10;;;;;;;3.80;1.90;;;23.20;1.00;;;;;;5055045;28;20478;-81
2023/07/29 10:37:37;;;;;;;2.93;1.50;;;23.60;1.00;;;;;;5052448;28;20466;-82
2023/07/29 10:40:08;;;;;;;3.30;1.87;;;24.20;8.10;;;;;;5055520;28;20451;-82
2023/07/29 10:42:35;;;;;;;2.30;1.10;;;24.50;1.00;;;;;;5056168;28;20472;-85
2023/07/29 10:45:20;;;;;;;1.77;1.10;;;24.60;1.00;;;;;;5056832;28;20444;-84
2023/07/29 10:47:47;;;;;;;2.40;1.30;;;24.70;99.90;;;;;;5062090;28;20472;-83
2023/07/29 10:50:19;;;;;;;2.03;1.13;;;24.90;1.00;;;;;;5056483;28;20456;-82
2023/07/29 10:52:50;;;;;;;1.90;1.30;;;25.30;1.00;;;;;;5067888;22;20494;-81
2023/07/29 10:55:27;;;;;;;2.07;1.30;;;25.70;99.90;;;;;;5019155;28;20498;-81
2023/07/29 10:58:09;;;;;;;1.80;1.40;;;25.90;1.00;;;;;;5028634;28;20945;-82
2023/07/29 11:00:37;;;;;;;2.30;1.47;;;26.00;1.00;;;;;;5037969;28;20864;-83
2023/07/29 11:03:06;;;;;;;2.27;1.70;;;25.90;1.00;;;;;;5032560;28;20516;-81
2023/07/29 11:05:45;;;;;;;2.40;1.63;;;25.60;1.00;;;;;;5023900;28;20470;-83
2023/07/29 11:08:19;;;;;;;3.60;1.50;;;25.40;99.90;;;;;;5023927;28;20487;-83
2023/07/29 11:10:59;;;;;;;2.10;1.40;;;25.10;99.90;;;;;;5043569;28;20460;-82
2023/07/29 11:13:28;;;;;;;2.63;1.33;;;24.70;99.90;;;;;;5019705;28;20461;-83
2023/07/29 11:15:58;;;;;;;2.00;1.50;;;24.70;99.90;;;;;;5019529;28;20450;-82
2023/07/29 11:18:28;;;;;;;2.60;1.60;;;25.20;65.90;;;;;;5019452;28;20466;-83
2023/07/29 11:20:55;;;;;;;2.43;1.70;;;25.60;1.00;;;;;;5021401;28;20500;-82
2023/07/29 11:23:29;;;;;;;3.00;1.80;;;25.80;99.90;;;;;;5021121;28;20477;-82
2023/07/29 11:25:56;;;;;;;2.60;1.80;;;26.30;99.90;;;;;;5021792;28;20488;-83
2023/07/29 11:28:23;;;;;;;3.03;1.70;;;26.40;72.20;;;;;;5028496;28;20484;-82
2023/07/29 11:30:51;;;;;;;3.10;1.90;;;26.40;1.00;;;;;;5032664;28;20933;-84
2023/07/29 11:33:21;;;;;;;2.33;1.63;;;26.30;1.00;;;;;;5019447;28;20478;-82
2023/07/29 11:35:47;;;;;;;2.07;1.57;;;26.10;99.90;;;;;;5018068;28;20886;-83
2023/07/29 11:38:16;;;;;;;2.27;1.77;;;26.00;99.90;;;;;;5017490;28;20878;-83
2023/07/29 11:40:43;;;;;;;2.43;1.33;;;25.80;99.90;;;;;;5015170;28;20484;-81
2023/07/29 11:43:09;;;;;;;2.40;1.70;;;25.60;1.00;;;;;;5015707;28;20461;-81
2023/07/29 11:45:36;;;;;;;2.47;1.63;;;25.80;1.00;;;;;;5015834;28;20553;-82
2023/07/29 11:48:03;;;;;;;3.53;1.83;;;25.90;99.90;;;;;;5016360;28;20472;-81
2023/07/29 11:50:32;;;;;;;2.00;1.10;;;26.20;99.90;;;;;;5015653;28;20504;-83
2023/07/29 11:52:59;;;;;;;2.00;1.30;;;26.10;99.90;;;;;;5015188;28;20572;-80
2023/07/29 11:55:26;;;;;;;2.17;1.40;;;25.90;99.90;;;;;;5016058;28;20830;-79
2023/07/29 11:57:53;;;;;;;2.33;1.27;;;25.70;1.00;;;;;;5016349;28;20521;-82
2023/07/29 12:00:22;;;;;;;2.10;1.30;;;25.80;99.90;;;;;;5017619;28;20455;-81
2023/07/29 12:02:50;;;;;;;3.60;1.60;;;26.20;1.00;;;;;;5016694;28;20470;-81
2023/07/29 12:05:20;;;;;;;2.37;1.27;;;26.60;1.00;;;;;;5015255;28;20460;-80
2023/07/29 12:07:53;;;;;;;3.37;1.53;;;26.40;99.90;;;;;;5015802;28;20445;-82
2023/07/29 12:10:21;;;;;;;2.20;1.10;;;26.00;99.90;;;;;;5002505;28;20886;-82
2023/07/29 12:12:49;;;;;;;12.10;2.07;;;25.70;99.90;;;;;;5011459;28;20997;-82
2023/07/29 12:15:24;;;;;;;3.37;1.10;;;26.10;99.90;;;;;;5015218;28;20450;-82
2023/07/29 12:17:54;;;;;;;2.17;1.20;;;26.40;99.90;;;;;;5015153;28;20465;-81
2023/07/29 12:20:21;;;;;;;2.43;1.50;;;26.70;99.90;;;;;;5013297;28;20472;-82
2023/07/29 12:22:54;;;;;;;2.00;1.40;;;27.20;99.90;;;;;;5015107;28;20472;-82
2023/07/29 12:25:21;;;;;;;5.27;1.30;;;27.50;1.00;;;;;;5013154;28;20548;-82
2023/07/29 12:27:48;;;;;;;3.10;1.47;;;27.80;1.00;;;;;;5027155;28;20830;-81
2023/07/29 12:30:16;;;;;;;2.87;1.20;;;27.90;99.90;;;;;;5013103;28;20895;-80
2023/07/29 12:32:47;;;;;;;2.93;1.10;;;27.50;99.90;;;;;;5024542;28;20479;-81
2023/07/29 12:35:14;;;;;;;3.07;1.57;;;27.50;1.00;;;;;;5019619;28;20464;-83
2023/07/29 12:37:42;;;;;;;2.20;1.30;;;27.10;34.60;;;;;;5013385;28;20442;-83
2023/07/29 12:40:23;;;;;;;4.30;2.63;;;26.90;99.90;;;;;;5015069;28;20775;-86
2023/07/29 12:42:51;;;;;;;3.70;2.40;;;26.70;99.90;;;;;;5021488;28;20984;-84
2023/07/29 12:45:18;;;;;;;1.90;1.20;;;26.60;99.90;;;;;;5015052;28;20540;-83
2023/07/29 12:47:45;;;;;;;2.13;1.43;;;27.00;99.90;;;;;;5017964;28;20487;-83
2023/07/29 12:50:12;;;;;;;2.00;1.00;;;27.00;99.90;;;;;;5016104;28;20481;-83
2023/07/29 12:52:39;;;;;;;2.53;1.60;;;27.50;99.90;;;;;;5010370;28;20496;-84